createdAt,value
2019-05-13T00:00:39.835Z,6.10
2019-05-13T00:01:39.821Z,5.20
2019-05-13T00:02:39.819Z,5.20
2019-05-13T00:03:39.800Z,4.20
2019-05-13T00:04:39.797Z,5.90
2019-05-13T00:05:39.799Z,4.40
2019-05-13T00:06:53.130Z,4.80
2019-05-13T00:07:40.756Z,4.40
2019-05-13T00:08:39.750Z,5.40
2019-05-13T00:09:39.737Z,4.70
2019-05-13T00:10:39.747Z,5.20
2019-05-13T00:11:39.719Z,3.50
2019-05-13T00:12:39.707Z,4.50
2019-05-13T00:13:39.701Z,5.80
2019-05-13T00:14:39.685Z,3.60
2019-05-13T00:15:39.674Z,5.40
2019-05-13T00:16:39.686Z,5.30
2019-05-13T00:17:39.654Z,3.20
2019-05-13T00:18:39.647Z,7.20
2019-05-13T00:19:39.634Z,4.70
2019-05-13T00:20:39.627Z,5.10
2019-05-13T00:21:39.610Z,7.90
2019-05-13T00:22:39.630Z,3.30
2019-05-13T00:23:39.591Z,3.90
2019-05-13T00:24:39.579Z,5.00
2019-05-13T00:25:39.573Z,4.50
2019-05-13T00:26:39.555Z,5.50
2019-05-13T00:27:39.567Z,4.80
2019-05-13T00:28:39.546Z,4.40
2019-05-13T00:29:39.523Z,4.20
2019-05-13T00:30:39.518Z,4.50
2019-05-13T00:31:39.510Z,5.80
2019-05-13T00:32:39.518Z,4.60
2019-05-13T00:33:39.483Z,4.10
2019-05-13T00:34:39.475Z,4.50
2019-05-13T00:35:39.461Z,6.00
2019-05-13T00:36:39.471Z,6.30
2019-05-13T00:37:39.442Z,6.00
2019-05-13T00:38:40.427Z,5.30
2019-05-13T00:39:39.420Z,5.00
2019-05-13T00:40:39.421Z,5.50
2019-05-13T00:41:39.398Z,5.30
2019-05-13T00:42:39.409Z,8.10
2019-05-13T00:43:39.382Z,4.70
2019-05-13T00:44:39.386Z,4.20
2019-05-13T00:45:39.355Z,3.90
2019-05-13T00:46:39.350Z,4.80
2019-05-13T00:47:39.335Z,5.80
2019-05-13T00:48:39.326Z,4.50
2019-05-13T00:49:39.344Z,5.20
2019-05-13T00:50:39.305Z,4.50
2019-05-13T00:51:39.293Z,6.30
2019-05-13T00:52:39.285Z,4.70
2019-05-13T00:53:39.272Z,6.10
2019-05-13T00:54:39.289Z,6.90
2019-05-13T00:55:39.255Z,5.40
2019-05-13T00:56:39.243Z,6.80
2019-05-13T00:57:39.229Z,3.70
2019-05-13T00:58:39.238Z,3.40
2019-05-13T00:59:39.239Z,5.70
2019-05-13T01:00:39.204Z,4.60
2019-05-13T01:01:39.190Z,3.00
2019-05-13T01:02:39.182Z,4.30
2019-05-13T01:03:39.174Z,6.90
2019-05-13T01:04:39.165Z,4.50
2019-05-13T01:05:39.171Z,5.90
2019-05-13T01:06:39.143Z,5.70
2019-05-13T01:07:39.143Z,7.10
2019-05-13T01:08:39.121Z,3.90
2019-05-13T01:09:39.127Z,5.00
2019-05-13T01:10:39.100Z,5.80
2019-05-13T01:11:39.085Z,4.30
2019-05-13T01:12:39.080Z,3.20
2019-05-13T01:13:39.068Z,6.50
2019-05-13T01:14:39.075Z,6.20
2019-05-13T01:15:39.042Z,4.70
2019-05-13T01:16:39.050Z,4.60
2019-05-13T01:17:39.025Z,6.40
2019-05-13T01:18:39.012Z,6.70
2019-05-13T01:19:39.025Z,4.30
2019-05-13T01:20:38.997Z,4.50
2019-05-13T01:21:38.982Z,5.10
2019-05-13T01:22:38.976Z,4.50
2019-05-13T01:23:38.974Z,5.60
2019-05-13T01:24:38.971Z,4.00
2019-05-13T01:25:38.948Z,5.60
2019-05-13T01:26:38.928Z,6.00
2019-05-13T01:27:38.920Z,4.80
2019-05-13T01:28:38.910Z,4.80
2019-05-13T01:29:38.922Z,5.10
2019-05-13T01:30:38.889Z,6.20
2019-05-13T01:31:38.877Z,6.00
2019-05-13T01:32:38.869Z,6.40
2019-05-13T01:33:38.858Z,6.40
2019-05-13T01:34:38.882Z,5.50
2019-05-13T01:35:38.838Z,5.60
2019-05-13T01:36:38.825Z,5.50
2019-05-13T01:37:42.522Z,3.70
2019-05-13T01:38:39.805Z,7.50
2019-05-13T01:39:38.812Z,4.50
2019-05-13T01:40:38.788Z,5.80
2019-05-13T01:41:38.771Z,6.90
2019-05-13T01:42:38.762Z,5.10
2019-05-13T01:43:38.766Z,5.30
2019-05-13T01:44:38.758Z,6.50
2019-05-13T01:45:38.731Z,4.80
2019-05-13T01:46:38.720Z,5.40
2019-05-13T01:47:38.712Z,5.50
2019-05-13T01:48:38.699Z,8.50
2019-05-13T01:49:38.708Z,5.30
2019-05-13T01:50:38.676Z,3.50
2019-05-13T01:51:38.691Z,4.20
2019-05-13T01:52:38.695Z,3.80
2019-05-13T01:53:38.646Z,5.80
2019-05-13T01:54:38.660Z,4.00
2019-05-13T01:55:38.625Z,3.90
2019-05-13T01:56:38.615Z,5.20
2019-05-13T01:57:38.605Z,5.80
2019-05-13T01:58:38.591Z,5.30
2019-05-13T01:59:38.584Z,4.30
2019-05-13T02:00:38.597Z,4.00
2019-05-13T02:01:38.565Z,6.40
2019-05-13T02:02:38.548Z,3.40
2019-05-13T02:03:38.541Z,8.30
2019-05-13T02:04:38.529Z,5.60
2019-05-13T02:05:38.516Z,3.60
2019-05-13T02:06:38.525Z,5.30
2019-05-13T02:07:38.501Z,5.20
2019-05-13T02:08:38.485Z,4.50
2019-05-13T02:09:38.476Z,5.30
2019-05-13T02:10:38.479Z,5.60
2019-05-13T02:11:38.474Z,6.30
2019-05-13T02:12:38.444Z,4.30
2019-05-13T02:13:38.434Z,5.60
2019-05-13T02:14:38.421Z,4.20
2019-05-13T02:15:38.410Z,4.30
2019-05-13T02:16:38.426Z,3.70
2019-05-13T02:17:38.391Z,5.90
2019-05-13T02:18:38.377Z,5.10
2019-05-13T02:19:38.380Z,5.80
2019-05-13T02:20:38.360Z,4.30
2019-05-13T02:21:38.370Z,6.30
2019-05-13T02:22:38.339Z,7.20
2019-05-13T02:23:38.327Z,7.20
2019-05-13T02:24:38.317Z,5.20
2019-05-13T02:25:38.303Z,3.90
2019-05-13T02:26:38.297Z,4.30
2019-05-13T02:27:38.301Z,5.50
2019-05-13T02:28:38.280Z,4.00
2019-05-13T02:29:38.262Z,6.10
2019-05-13T02:30:38.251Z,5.80
2019-05-13T02:31:46.613Z,7.30
2019-05-13T02:32:42.542Z,6.60
2019-05-13T02:33:38.221Z,8.90
2019-05-13T02:34:38.209Z,8.00
2019-05-13T02:35:38.201Z,8.20
2019-05-13T02:36:38.186Z,4.20
2019-05-13T02:37:38.218Z,5.70
2019-05-13T02:38:38.189Z,6.60
2019-05-13T02:39:38.157Z,4.40
2019-05-13T02:40:38.144Z,4.40
2019-05-13T02:41:38.135Z,6.80
2019-05-13T02:42:38.126Z,4.40
2019-05-13T02:43:41.385Z,4.60
2019-05-13T02:44:39.111Z,6.90
2019-05-13T02:45:38.093Z,5.20
2019-05-13T02:46:38.083Z,4.80
2019-05-13T02:47:38.073Z,7.00
2019-05-13T02:48:38.080Z,6.00
2019-05-13T02:49:38.055Z,5.00
2019-05-13T02:50:38.039Z,4.80
2019-05-13T02:51:38.029Z,5.80
2019-05-13T02:52:38.020Z,7.00
2019-05-13T02:53:38.008Z,5.90
2019-05-13T02:54:38.020Z,5.50
2019-05-13T02:55:37.995Z,5.30
2019-05-13T02:56:37.977Z,7.20
2019-05-13T02:57:37.967Z,3.40
2019-05-13T02:58:37.953Z,7.40
2019-05-13T02:59:37.969Z,5.10
2019-05-13T03:00:37.935Z,4.90
2019-05-13T03:01:37.924Z,4.90
2019-05-13T03:02:37.914Z,6.30
2019-05-13T03:03:37.905Z,6.90
2019-05-13T03:04:37.948Z,7.80
2019-05-13T03:05:37.883Z,4.60
2019-05-13T03:06:37.865Z,6.20
2019-05-13T03:07:37.859Z,5.30
2019-05-13T03:08:48.318Z,6.00
2019-05-13T03:09:42.058Z,6.30
2019-05-13T03:10:37.830Z,5.50
2019-05-13T03:11:37.815Z,6.70
2019-05-13T03:12:37.822Z,5.10
2019-05-13T03:13:37.794Z,4.50
2019-05-13T03:14:37.786Z,4.90
2019-05-13T03:15:37.793Z,5.10
2019-05-13T03:16:37.761Z,5.60
2019-05-13T03:17:37.759Z,5.90
2019-05-13T03:18:37.738Z,5.60
2019-05-13T03:19:37.727Z,5.90
2019-05-13T03:20:37.735Z,3.20
2019-05-13T03:21:37.729Z,5.00
2019-05-13T03:22:37.698Z,7.70
2019-05-13T03:23:37.684Z,3.50
2019-05-13T03:24:37.672Z,8.00
2019-05-13T03:25:37.707Z,6.60
2019-05-13T03:26:37.666Z,7.70
2019-05-13T03:27:37.641Z,7.90
2019-05-13T03:28:37.630Z,4.60
2019-05-13T03:29:37.620Z,6.00
2019-05-13T03:30:37.656Z,6.20
2019-05-13T03:31:37.618Z,6.80
2019-05-13T03:32:44.716Z,9.00
2019-05-13T03:33:38.578Z,7.30
2019-05-13T03:34:37.567Z,4.70
2019-05-13T03:35:37.637Z,5.20
2019-05-13T03:36:37.588Z,6.10
2019-05-13T03:37:37.533Z,5.60
2019-05-13T03:38:58.175Z,7.80
2019-05-13T03:39:38.518Z,5.30
2019-05-13T03:40:37.498Z,9.50
2019-05-13T03:41:37.489Z,5.80
2019-05-13T03:42:37.498Z,4.30
2019-05-13T03:43:37.469Z,7.20
2019-05-13T03:44:37.458Z,5.10
2019-05-13T03:45:37.445Z,6.70
2019-05-13T03:46:37.437Z,7.50
2019-05-13T03:47:37.444Z,6.30
2019-05-13T03:48:37.419Z,4.30
2019-05-13T03:49:37.415Z,4.60
2019-05-13T03:50:37.391Z,6.30
2019-05-13T03:51:37.383Z,5.10
2019-05-13T03:52:37.389Z,7.20
2019-05-13T03:53:37.356Z,6.30
2019-05-13T03:54:37.347Z,7.80
2019-05-13T03:55:37.338Z,7.30
2019-05-13T03:56:37.326Z,6.20
2019-05-13T03:57:37.338Z,4.60
2019-05-13T03:58:37.310Z,6.30
2019-05-13T03:59:37.299Z,4.90
2019-05-13T04:00:37.290Z,5.40
2019-05-13T04:01:37.278Z,5.10
2019-05-13T04:02:37.261Z,5.80
2019-05-13T04:03:37.269Z,4.70
2019-05-13T04:04:37.238Z,7.30
2019-05-13T04:05:37.226Z,4.90
2019-05-13T04:06:37.217Z,4.10
2019-05-13T04:07:37.222Z,6.40
2019-05-13T04:08:37.474Z,5.70
2019-05-13T04:09:37.187Z,6.60
2019-05-13T04:10:37.176Z,9.40
2019-05-13T04:11:37.164Z,7.10
2019-05-13T04:12:37.153Z,6.50
2019-05-13T04:13:37.168Z,7.50
2019-05-13T04:14:37.159Z,8.50
2019-05-13T04:15:37.125Z,8.90
2019-05-13T04:16:37.123Z,7.20
2019-05-13T04:17:37.101Z,7.50
2019-05-13T04:18:37.093Z,6.70
2019-05-13T04:19:37.106Z,6.10
2019-05-13T04:20:37.073Z,6.90
2019-05-13T04:21:37.060Z,6.90
2019-05-13T04:22:37.051Z,5.10
2019-05-13T04:23:37.041Z,8.60
2019-05-13T04:24:37.047Z,5.50
2019-05-13T04:25:39.634Z,7.50
2019-05-13T04:26:38.007Z,7.70
2019-05-13T04:27:36.998Z,5.80
2019-05-13T04:28:36.988Z,5.70
2019-05-13T04:29:36.997Z,8.60
2019-05-13T04:30:36.974Z,5.00
2019-05-13T04:31:36.954Z,6.70
2019-05-13T04:32:36.955Z,7.00
2019-05-13T04:33:36.936Z,7.70
2019-05-13T04:34:36.961Z,6.00
2019-05-13T04:35:36.915Z,9.60
2019-05-13T04:36:36.911Z,8.50
2019-05-13T04:37:36.894Z,9.60
2019-05-13T04:38:36.879Z,8.70
2019-05-13T04:39:47.689Z,6.80
2019-05-13T04:40:37.881Z,7.20
2019-05-13T04:41:36.846Z,6.70
2019-05-13T04:42:36.838Z,5.50
2019-05-13T04:43:36.831Z,5.70
2019-05-13T04:44:36.819Z,7.00
2019-05-13T04:45:36.828Z,6.30
2019-05-13T04:46:36.793Z,6.70
2019-05-13T04:47:36.783Z,6.40
2019-05-13T04:48:39.554Z,7.80
2019-05-13T04:49:37.766Z,5.70
2019-05-13T04:50:36.772Z,6.20
2019-05-13T04:51:36.741Z,5.40
2019-05-13T04:52:36.737Z,4.80
2019-05-13T04:53:36.728Z,9.90
2019-05-13T04:54:36.708Z,8.10
2019-05-13T04:55:36.722Z,8.60
2019-05-13T04:56:36.686Z,6.30
2019-05-13T04:57:36.680Z,8.90
2019-05-13T04:58:36.663Z,7.20
2019-05-13T04:59:40.304Z,8.90
2019-05-13T05:00:37.662Z,6.60
2019-05-13T05:01:40.340Z,6.50
2019-05-13T05:02:43.043Z,6.40
2019-05-13T05:03:42.075Z,6.80
2019-05-13T05:04:37.598Z,6.50
2019-05-13T05:05:36.589Z,7.20
2019-05-13T05:06:36.594Z,7.10
2019-05-13T05:07:36.570Z,6.80
2019-05-13T05:08:36.553Z,10.60
2019-05-13T05:09:40.332Z,6.20
2019-05-13T05:10:38.787Z,9.80
2019-05-13T05:11:36.550Z,9.80
2019-05-13T05:12:36.512Z,8.50
2019-05-13T05:13:36.501Z,8.80
2019-05-13T05:14:36.496Z,6.00
2019-05-13T05:15:36.479Z,7.60
2019-05-13T05:16:36.470Z,9.00
2019-05-13T05:17:36.482Z,6.00
2019-05-13T05:18:36.449Z,8.50
2019-05-13T05:19:36.450Z,7.10
2019-05-13T05:20:36.425Z,11.60
2019-05-13T05:21:36.417Z,13.50
2019-05-13T05:22:36.433Z,9.00
2019-05-13T05:23:36.392Z,7.60
2019-05-13T05:24:36.384Z,8.80
2019-05-13T05:25:36.373Z,11.90
2019-05-13T05:26:36.363Z,8.50
2019-05-13T05:27:36.421Z,9.30
2019-05-13T05:28:36.351Z,9.90
2019-05-13T05:29:36.331Z,8.00
2019-05-13T05:30:36.319Z,10.80
2019-05-13T05:31:36.310Z,9.70
2019-05-13T05:32:36.407Z,11.70
2019-05-13T05:33:36.288Z,10.70
2019-05-13T05:34:36.278Z,9.50
2019-05-13T05:35:36.266Z,8.30
2019-05-13T05:36:36.253Z,9.80
2019-05-13T05:37:36.267Z,8.30
2019-05-13T05:38:36.231Z,10.30
2019-05-13T05:39:36.220Z,10.20
2019-05-13T05:40:36.213Z,9.90
2019-05-13T05:41:36.199Z,10.60
2019-05-13T05:42:36.207Z,11.40
2019-05-13T05:43:36.180Z,9.30
2019-05-13T05:44:36.171Z,11.60
2019-05-13T05:45:36.160Z,8.80
2019-05-13T05:46:36.153Z,10.80
2019-05-13T05:47:36.162Z,10.10
2019-05-13T05:48:36.123Z,9.20
2019-05-13T05:49:36.142Z,10.80
2019-05-13T05:50:36.100Z,11.00
2019-05-13T05:51:36.091Z,12.20
2019-05-13T05:52:36.104Z,12.90
2019-05-13T05:53:36.068Z,13.30
2019-05-13T05:54:36.071Z,10.80
2019-05-13T05:55:36.057Z,10.30
2019-05-13T05:56:36.038Z,8.90
2019-05-13T05:57:36.044Z,10.20
2019-05-13T05:58:36.014Z,10.40
2019-05-13T05:59:36.006Z,8.50
2019-05-13T06:00:35.991Z,10.00
2019-05-13T06:01:37.453Z,9.20
2019-05-13T06:02:35.993Z,12.00
2019-05-13T06:03:35.960Z,8.20
2019-05-13T06:04:35.959Z,10.50
2019-05-13T06:05:35.937Z,11.30
2019-05-13T06:06:35.927Z,10.50
2019-05-13T06:07:35.957Z,10.80
2019-05-13T06:08:35.908Z,9.40
2019-05-13T06:09:35.896Z,10.20
2019-05-13T06:10:46.263Z,11.20
2019-05-13T06:11:36.879Z,15.10
2019-05-13T06:12:35.862Z,10.90
2019-05-13T06:13:35.885Z,11.30
2019-05-13T06:14:35.841Z,13.10
2019-05-13T06:15:35.831Z,8.20
2019-05-13T06:16:35.827Z,11.30
2019-05-13T06:17:35.816Z,12.90
2019-05-13T06:18:35.819Z,10.80
2019-05-13T06:19:35.789Z,12.40
2019-05-13T06:20:35.779Z,9.90
2019-05-13T06:21:35.769Z,10.40
2019-05-13T06:22:35.760Z,10.30
2019-05-13T06:23:35.765Z,11.90
2019-05-13T06:24:35.736Z,13.60
2019-05-13T06:25:35.725Z,11.10
2019-05-13T06:26:35.714Z,13.00
2019-05-13T06:27:35.704Z,14.10
2019-05-13T06:28:35.715Z,9.60
2019-05-13T06:29:35.684Z,11.50
2019-05-13T06:30:35.673Z,9.00
2019-05-13T06:31:35.676Z,9.30
2019-05-13T06:32:35.652Z,9.60
2019-05-13T06:33:35.664Z,9.80
2019-05-13T06:34:35.631Z,9.20
2019-05-13T06:35:35.627Z,11.00
2019-05-13T06:36:35.610Z,14.30
2019-05-13T06:37:35.602Z,9.20
2019-05-13T06:38:35.614Z,12.20
2019-05-13T06:39:35.578Z,8.80
2019-05-13T06:40:35.573Z,11.40
2019-05-13T06:41:35.559Z,10.20
2019-05-13T06:42:35.546Z,11.30
2019-05-13T06:43:35.539Z,11.90
2019-05-13T06:44:35.547Z,10.20
2019-05-13T06:45:35.522Z,14.60
2019-05-13T06:46:35.510Z,9.50
2019-05-13T06:47:36.246Z,10.20
2019-05-13T06:48:35.488Z,13.00
2019-05-13T06:49:35.503Z,11.20
2019-05-13T06:50:35.464Z,10.90
2019-05-13T06:51:35.455Z,8.10
2019-05-13T06:52:35.483Z,10.30
2019-05-13T06:53:35.444Z,11.70
2019-05-13T06:54:35.446Z,15.70
2019-05-13T06:55:35.411Z,12.90
2019-05-13T06:56:35.403Z,11.10
2019-05-13T06:57:35.390Z,9.20
2019-05-13T06:58:35.381Z,13.40
2019-05-13T06:59:35.369Z,8.90
2019-05-13T07:00:35.382Z,10.90
2019-05-13T07:01:35.359Z,13.10
2019-05-13T07:02:35.338Z,12.10
2019-05-13T07:03:35.328Z,11.50
2019-05-13T07:04:35.318Z,13.20
2019-05-13T07:05:35.336Z,12.00
2019-05-13T07:06:35.298Z,10.40
2019-05-13T07:07:35.285Z,10.20
2019-05-13T07:08:35.275Z,12.30
2019-05-13T07:09:35.269Z,11.50
2019-05-13T07:10:35.275Z,11.60
2019-05-13T07:11:35.295Z,13.90
2019-05-13T07:12:35.232Z,10.90
2019-05-13T07:13:35.225Z,11.70
2019-05-13T07:14:35.224Z,13.30
2019-05-13T07:15:35.219Z,10.70
2019-05-13T07:16:35.192Z,14.40
2019-05-13T07:17:35.182Z,11.70
2019-05-13T07:18:35.179Z,9.10
2019-05-13T07:19:35.159Z,14.80
2019-05-13T07:20:35.169Z,13.10
2019-05-13T07:21:35.136Z,12.20
2019-05-13T07:22:35.145Z,12.70
2019-05-13T07:23:35.118Z,10.40
2019-05-13T07:24:35.120Z,12.20
2019-05-13T07:25:35.118Z,12.80
2019-05-13T07:26:35.084Z,13.80
2019-05-13T07:27:35.075Z,9.30
2019-05-13T07:28:35.064Z,10.50
2019-05-13T07:29:35.052Z,8.80
2019-05-13T07:30:35.059Z,15.90
2019-05-13T07:31:35.037Z,11.40
2019-05-13T07:32:35.021Z,12.30
2019-05-13T07:33:35.011Z,10.50
2019-05-13T07:34:35.000Z,10.60
2019-05-13T07:35:37.960Z,14.40
2019-05-13T07:36:34.988Z,10.70
2019-05-13T07:37:34.969Z,12.30
2019-05-13T07:38:34.956Z,9.70
2019-05-13T07:39:34.944Z,8.60
2019-05-13T07:40:34.959Z,8.90
2019-05-13T07:41:39.184Z,9.30
2019-05-13T07:42:35.917Z,9.70
2019-05-13T07:43:34.903Z,10.60
2019-05-13T07:44:34.893Z,8.60
2019-05-13T07:45:35.000Z,9.10
2019-05-13T07:46:34.891Z,10.50
2019-05-13T07:47:34.863Z,8.70
2019-05-13T07:48:34.850Z,12.10
2019-05-13T07:49:34.843Z,9.90
2019-05-13T07:50:34.835Z,13.10
2019-05-13T07:51:34.838Z,9.10
2019-05-13T07:52:34.810Z,13.90
2019-05-13T07:53:34.797Z,13.20
2019-05-13T07:54:34.792Z,9.00
2019-05-13T07:55:34.779Z,8.80
2019-05-13T07:56:34.833Z,11.00
2019-05-13T07:57:34.757Z,11.40
2019-05-13T07:58:37.650Z,7.50
2019-05-13T07:59:34.738Z,9.80
2019-05-13T08:00:34.731Z,6.70
2019-05-13T08:01:34.712Z,9.00
2019-05-13T08:02:34.721Z,11.10
2019-05-13T08:03:34.690Z,7.50
2019-05-13T08:04:34.693Z,9.10
2019-05-13T08:05:34.670Z,9.70
2019-05-13T08:06:34.673Z,7.60
2019-05-13T08:07:34.686Z,12.50
2019-05-13T08:08:34.639Z,8.40
2019-05-13T08:09:34.629Z,8.60
2019-05-13T08:10:34.617Z,7.40
2019-05-13T08:11:40.150Z,13.40
2019-05-13T08:12:35.613Z,10.00
2019-05-13T08:13:34.586Z,7.90
2019-05-13T08:14:34.638Z,7.90
2019-05-13T08:15:34.564Z,10.30
2019-05-13T08:16:34.552Z,7.20
2019-05-13T08:17:34.620Z,7.60
2019-05-13T08:18:34.532Z,8.00
2019-05-13T08:19:34.521Z,6.60
2019-05-13T08:20:34.512Z,9.40
2019-05-13T08:21:34.514Z,11.60
2019-05-13T08:22:36.032Z,8.80
2019-05-13T08:23:34.479Z,7.50
2019-05-13T08:24:34.467Z,7.30
2019-05-13T08:25:34.457Z,5.90
2019-05-13T08:26:37.951Z,8.60
2019-05-13T08:27:35.457Z,10.10
2019-05-13T08:28:34.425Z,7.10
2019-05-13T08:29:34.414Z,9.60
2019-05-13T08:30:34.403Z,6.90
2019-05-13T08:31:34.406Z,9.80
2019-05-13T08:32:34.389Z,6.60
2019-05-13T08:33:34.392Z,7.50
2019-05-13T08:34:34.362Z,7.60
2019-05-13T08:35:34.352Z,8.50
2019-05-13T08:36:34.340Z,7.60
2019-05-13T08:37:34.350Z,8.60
2019-05-13T08:38:34.341Z,9.80
2019-05-13T08:39:40.875Z,10.50
2019-05-13T08:40:35.296Z,9.50
2019-05-13T08:41:34.288Z,6.20
2019-05-13T08:42:34.276Z,8.00
2019-05-13T08:43:34.296Z,9.20
2019-05-13T08:44:34.255Z,6.90
2019-05-13T08:45:34.245Z,7.40
2019-05-13T08:46:34.236Z,8.50
2019-05-13T08:47:34.226Z,6.70
2019-05-13T08:48:34.255Z,5.00
2019-05-13T08:49:34.212Z,8.50
2019-05-13T08:50:34.197Z,6.10
2019-05-13T08:51:34.954Z,6.30
2019-05-13T08:52:34.171Z,6.00
2019-05-13T08:53:34.159Z,7.80
2019-05-13T08:54:34.171Z,6.80
2019-05-13T08:55:34.150Z,7.30
2019-05-13T08:56:34.128Z,6.40
2019-05-13T08:57:34.181Z,6.70
2019-05-13T08:58:34.108Z,10.20
2019-05-13T08:59:34.121Z,6.20
2019-05-13T09:00:34.093Z,8.80
2019-05-13T09:01:34.076Z,4.60
2019-05-13T09:02:34.067Z,6.70
2019-05-13T09:03:34.053Z,8.70
2019-05-13T09:04:34.077Z,7.50
2019-05-13T09:05:34.038Z,7.10
2019-05-13T09:06:34.023Z,4.10
2019-05-13T09:07:34.012Z,6.70
2019-05-13T09:08:34.001Z,4.20
2019-05-13T09:09:34.014Z,6.20
2019-05-13T09:10:33.982Z,6.70
2019-05-13T09:11:33.971Z,7.60
2019-05-13T09:12:37.071Z,7.00
2019-05-13T09:13:34.948Z,7.30
2019-05-13T09:14:33.984Z,7.20
2019-05-13T09:15:33.927Z,4.90
2019-05-13T09:16:33.940Z,4.40
2019-05-13T09:17:33.911Z,6.40
2019-05-13T09:18:33.896Z,5.00
2019-05-13T09:19:33.885Z,6.30
2019-05-13T09:20:33.896Z,4.30
2019-05-13T09:21:33.873Z,7.00
2019-05-13T09:22:33.855Z,6.70
2019-05-13T09:23:33.842Z,5.30
2019-05-13T09:24:37.550Z,5.60
2019-05-13T09:25:33.843Z,6.00
2019-05-13T09:26:33.822Z,7.80
2019-05-13T09:27:33.800Z,4.80
2019-05-13T09:28:33.789Z,6.00
2019-05-13T09:29:33.780Z,4.80
2019-05-13T09:30:33.787Z,5.20
2019-05-13T09:31:33.756Z,4.80
2019-05-13T09:32:33.747Z,7.30
2019-05-13T09:33:33.737Z,5.20
2019-05-13T09:34:33.727Z,5.90
2019-05-13T09:35:33.745Z,5.20
2019-05-13T09:36:33.706Z,3.70
2019-05-13T09:37:33.711Z,5.30
2019-05-13T09:38:33.685Z,4.90
2019-05-13T09:39:33.671Z,4.70
2019-05-13T09:40:33.663Z,4.90
2019-05-13T09:41:40.575Z,5.40
2019-05-13T09:42:48.163Z,6.10
2019-05-13T09:43:34.636Z,5.00
2019-05-13T09:44:33.620Z,5.40
2019-05-13T09:45:33.609Z,7.00
2019-05-13T09:46:33.619Z,6.20
2019-05-13T09:47:33.586Z,4.20
2019-05-13T09:48:33.576Z,6.60
2019-05-13T09:49:33.566Z,5.10
2019-05-13T09:50:36.216Z,5.00
2019-05-13T09:51:33.561Z,6.80
2019-05-13T09:52:33.546Z,4.80
2019-05-13T09:53:33.523Z,5.70
2019-05-13T09:54:33.512Z,4.00
2019-05-13T09:55:33.504Z,4.00
2019-05-13T09:56:33.510Z,4.90
2019-05-13T09:57:33.478Z,4.60
2019-05-13T09:58:33.471Z,4.30
2019-05-13T09:59:33.457Z,4.80
2019-05-13T10:00:33.446Z,6.50
2019-05-13T10:01:33.466Z,6.60
2019-05-13T10:02:33.426Z,5.80
2019-05-13T10:03:33.463Z,5.80
2019-05-13T10:04:33.404Z,7.20
2019-05-13T10:05:33.400Z,5.30
2019-05-13T10:06:33.383Z,6.10
2019-05-13T10:07:33.393Z,4.40
2019-05-13T10:08:33.361Z,6.60
2019-05-13T10:09:33.362Z,5.70
2019-05-13T10:10:33.339Z,4.20
2019-05-13T10:11:33.331Z,5.80
2019-05-13T10:12:33.343Z,6.10
2019-05-13T10:13:33.306Z,5.00
2019-05-13T10:14:33.433Z,3.80
2019-05-13T10:15:33.286Z,5.30
2019-05-13T10:16:33.274Z,3.40
2019-05-13T10:17:33.288Z,5.30
2019-05-13T10:18:33.262Z,6.50
2019-05-13T10:19:33.288Z,5.10
2019-05-13T10:20:33.232Z,6.10
2019-05-13T10:21:33.221Z,4.30
2019-05-13T10:22:33.237Z,3.20
2019-05-13T10:23:33.527Z,5.10
2019-05-13T10:24:33.188Z,5.20
2019-05-13T10:25:33.178Z,5.00
2019-05-13T10:26:33.170Z,6.00
2019-05-13T10:27:33.201Z,5.60
2019-05-13T10:28:33.147Z,7.90
2019-05-13T10:29:33.140Z,3.40
2019-05-13T10:30:33.134Z,4.30
2019-05-13T10:31:33.114Z,5.30
2019-05-13T10:32:33.106Z,4.50
2019-05-13T10:33:33.110Z,5.20
2019-05-13T10:34:33.091Z,5.00
2019-05-13T10:35:33.072Z,4.50
2019-05-13T10:36:33.082Z,4.20
2019-05-13T10:37:33.054Z,5.40
2019-05-13T10:38:33.078Z,7.20
2019-05-13T10:39:33.028Z,5.80
2019-05-13T10:40:33.016Z,4.60
2019-05-13T10:41:33.454Z,6.90
2019-05-13T10:42:33.020Z,4.60
2019-05-13T10:43:33.058Z,6.60
2019-05-13T10:44:32.996Z,5.20
2019-05-13T10:45:33.385Z,4.30
2019-05-13T10:46:32.954Z,6.00
2019-05-13T10:47:32.943Z,5.20
2019-05-13T10:48:32.934Z,3.90
2019-05-13T10:49:33.407Z,4.20
2019-05-13T10:50:32.920Z,3.80
2019-05-13T10:51:32.900Z,5.00
2019-05-13T10:52:32.892Z,5.20
2019-05-13T10:53:32.880Z,5.90
2019-05-13T10:54:32.987Z,4.90
2019-05-13T10:55:32.858Z,4.60
2019-05-13T10:56:33.177Z,5.90
2019-05-13T10:57:32.836Z,5.10
2019-05-13T10:58:32.827Z,5.70
2019-05-13T10:59:32.838Z,3.00
2019-05-13T11:00:32.804Z,6.30
2019-05-13T11:01:32.946Z,4.80
2019-05-13T11:02:32.926Z,7.30
2019-05-13T11:03:33.262Z,7.50
2019-05-13T11:04:32.934Z,6.60
2019-05-13T11:05:32.885Z,5.00
2019-05-13T11:06:32.740Z,6.10
2019-05-13T11:07:32.734Z,4.90
2019-05-13T11:08:33.374Z,6.80
2019-05-13T11:09:32.879Z,6.40
2019-05-13T11:10:32.792Z,6.60
2019-05-13T11:11:33.212Z,7.30
2019-05-13T11:12:33.541Z,5.90
2019-05-13T11:13:50.667Z,5.40
2019-05-13T11:14:33.757Z,5.80
2019-05-13T11:15:40.403Z,5.90
2019-05-13T11:16:33.641Z,5.90
2019-05-13T11:17:33.277Z,3.50
2019-05-13T11:18:32.614Z,4.50
2019-05-13T11:19:36.202Z,7.00
2019-05-13T11:20:32.594Z,5.40
2019-05-13T11:21:32.580Z,6.40
2019-05-13T11:22:32.818Z,4.60
2019-05-13T11:23:32.614Z,4.50
2019-05-13T11:24:32.762Z,6.00
2019-05-13T11:25:32.567Z,7.40
2019-05-13T11:26:36.101Z,5.70
2019-05-13T11:27:32.597Z,4.30
2019-05-13T11:28:32.517Z,5.00
2019-05-13T11:29:32.753Z,7.60
2019-05-13T11:30:32.485Z,5.60
2019-05-13T11:31:33.016Z,4.30
2019-05-13T11:32:32.501Z,4.60
2019-05-13T11:33:32.469Z,7.30
2019-05-13T11:34:33.126Z,7.60
2019-05-13T11:35:32.432Z,3.70
2019-05-13T11:36:33.325Z,3.80
2019-05-13T11:37:32.423Z,4.90
2019-05-13T11:38:32.929Z,5.20
2019-05-13T11:39:32.692Z,5.70
2019-05-13T11:40:32.386Z,7.60
2019-05-13T11:41:32.709Z,5.30
2019-05-13T11:42:32.885Z,5.10
2019-05-13T11:43:33.202Z,4.60
2019-05-13T11:44:32.574Z,3.50
2019-05-13T11:45:32.328Z,5.10
2019-05-13T11:46:33.236Z,2.70
2019-05-13T11:47:32.379Z,6.30
2019-05-13T11:48:32.681Z,4.00
2019-05-13T11:49:32.286Z,5.50
2019-05-13T11:50:32.293Z,5.80
2019-05-13T11:51:32.490Z,5.10
2019-05-13T11:52:32.251Z,5.10
2019-05-13T11:53:34.424Z,4.10
2019-05-13T11:54:32.230Z,4.50
2019-05-13T11:55:32.252Z,5.40
2019-05-13T11:56:33.649Z,4.90
2019-05-13T11:57:32.198Z,2.90
2019-05-13T11:58:32.599Z,4.00
2019-05-13T11:59:32.906Z,3.30
2019-05-13T12:00:32.207Z,5.00
2019-05-13T12:01:33.455Z,4.20
2019-05-13T12:02:32.891Z,2.80
2019-05-13T12:03:32.698Z,3.80
2019-05-13T12:04:34.472Z,3.50
2019-05-13T12:05:32.721Z,6.30
2019-05-13T12:06:33.828Z,3.80
2019-05-13T12:07:32.937Z,7.30
2019-05-13T12:08:34.091Z,4.80
2019-05-13T12:09:33.069Z,5.10
2019-05-13T12:10:32.667Z,3.50
2019-05-13T12:11:33.367Z,4.00
2019-05-13T12:12:34.616Z,6.50
2019-05-13T12:13:32.862Z,4.40
2019-05-13T12:14:47.701Z,3.80
2019-05-13T12:15:45.563Z,4.70
2019-05-13T12:16:34.941Z,7.00
2019-05-13T12:17:33.906Z,4.50
2019-05-13T12:18:31.983Z,3.40
2019-05-13T12:19:31.966Z,4.20
2019-05-13T12:20:32.852Z,7.00
2019-05-13T12:21:31.969Z,4.00
2019-05-13T12:22:31.946Z,2.80
2019-05-13T12:23:31.927Z,4.60
2019-05-13T12:24:31.912Z,5.10
2019-05-13T12:25:33.529Z,5.10
2019-05-13T12:26:33.306Z,2.90
2019-05-13T12:27:32.134Z,3.60
2019-05-13T12:28:31.870Z,4.90
2019-05-13T12:29:31.863Z,2.70
2019-05-13T12:30:33.841Z,3.80
2019-05-13T12:31:33.576Z,4.10
2019-05-13T12:32:32.377Z,5.30
2019-05-13T12:33:32.669Z,7.60
2019-05-13T12:34:39.713Z,5.80
2019-05-13T12:35:32.964Z,8.40
2019-05-13T12:36:32.976Z,9.50
2019-05-13T12:37:33.537Z,6.30
2019-05-13T12:38:33.103Z,6.60
2019-05-13T12:39:32.131Z,5.20
2019-05-13T12:40:33.814Z,5.50
2019-05-13T12:41:32.956Z,14.10
2019-05-13T12:42:33.786Z,7.70
2019-05-13T12:43:32.036Z,4.40
2019-05-13T12:44:31.739Z,6.40
2019-05-13T12:45:31.707Z,5.90
2019-05-13T12:46:31.679Z,4.40
2019-05-13T12:47:31.686Z,4.90
2019-05-13T12:48:31.657Z,4.70
2019-05-13T12:49:35.629Z,4.40
2019-05-13T12:50:32.965Z,4.70
2019-05-13T12:51:32.590Z,4.90
2019-05-13T12:52:32.576Z,5.60
2019-05-13T12:53:32.328Z,5.50
2019-05-13T12:54:32.506Z,5.60
2019-05-13T12:55:33.183Z,2.80
2019-05-13T12:56:33.326Z,3.20
2019-05-13T12:57:32.474Z,4.10
2019-05-13T12:58:33.864Z,5.50
2019-05-13T12:59:32.102Z,12.10
2019-05-13T13:00:32.911Z,24.40
2019-05-13T13:01:32.453Z,10.50
2019-05-13T13:02:32.575Z,4.30
2019-05-13T13:03:33.173Z,5.80
2019-05-13T13:04:33.544Z,7.40
2019-05-13T13:05:34.326Z,4.30
2019-05-13T13:06:40.334Z,4.10
2019-05-13T13:07:40.252Z,6.40
2019-05-13T13:08:42.305Z,5.90
2019-05-13T13:09:33.540Z,8.90
2019-05-13T13:10:34.501Z,10.80
2019-05-13T13:11:32.374Z,6.50
2019-05-13T13:12:36.018Z,6.40
2019-05-13T13:13:54.013Z,7.50
2019-05-13T13:14:38.507Z,6.60